sensor_id;sensor_type;location;lat;lon;timestamp;temperature;humidity
3996;DHT22;2012;49.794;9.722;2023-04-03T00:01:05;3.30;99.90
3996;DHT22;2012;49.794;9.722;2023-04-03T00:03:32;3.40;99.90
3996;DHT22;2012;49.794;9.722;2023-04-03T00:05:59;3.40;99.90
3996;DHT22;2012;49.794;9.722;2023-04-03T00:08:27;3.30;99.90
3996;DHT22;2012;49.794;9.722;2023-04-03T00:10:53;3.40;99.90
3996;DHT22;2012;49.794;9.722;2023-04-03T00:13:20;3.20;99.90
3996;DHT22;2012;49.794;9.722;2023-04-03T00:15:47;3.30;99.90
3996;DHT22;2012;49.794;9.722;2023-04-03T00:18:14;3.30;99.90
3996;DHT22;2012;49.794;9.722;2023-04-03T00:20:41;3.30;99.90
3996;DHT22;2012;49.794;9.722;2023-04-03T00:23:08;3.10;99.90
3996;DHT22;2012;49.794;9.722;2023-04-03T00:25:35;3.20;99.90
3996;DHT22;2012;49.794;9.722;2023-04-03T00:28:02;3.20;99.90
3996;DHT22;2012;49.794;9.722;2023-04-03T00:30:30;3.10;99.90
3996;DHT22;2012;49.794;9.722;2023-04-03T00:32:57;3.10;99.90
3996;DHT22;2012;49.794;9.722;2023-04-03T00:35:25;3.10;99.90
3996;DHT22;2012;49.794;9.722;2023-04-03T00:37:52;3.10;99.90
3996;DHT22;2012;49.794;9.722;2023-04-03T00:40:22;3.10;99.90
3996;DHT22;2012;49.794;9.722;2023-04-03T00:42:53;3.10;99.90
3996;DHT22;2012;49.794;9.722;2023-04-03T00:45:34;3.20;99.90
3996;DHT22;2012;49.794;9.722;2023-04-03T00:48:04;3.10;99.90
3996;DHT22;2012;49.794;9.722;2023-04-03T00:50:35;3.10;99.90
3996;DHT22;2012;49.794;9.722;2023-04-03T00:53:05;3.10;99.90
3996;DHT22;2012;49.794;9.722;2023-04-03T00:55:34;3.00;99.90
3996;DHT22;2012;49.794;9.722;2023-04-03T00:58:02;3.00;99.90
3996;DHT22;2012;49.794;9.722;2023-04-03T01:00:30;3.00;99.90
3996;DHT22;2012;49.794;9.722;2023-04-03T01:02:56;3.10;99.90
3996;DHT22;2012;49.794;9.722;2023-04-03T01:05:24;3.00;99.90
3996;DHT22;2012;49.794;9.722;2023-04-03T01:07:52;3.00;99.90
3996;DHT22;2012;49.794;9.722;2023-04-03T01:10:19;2.90;99.90
3996;DHT22;2012;49.794;9.722;2023-04-03T01:12:49;3.00;99.90
3996;DHT22;2012;49.794;9.722;2023-04-03T01:15:23;3.00;99.90
3996;DHT22;2012;49.794;9.722;2023-04-03T01:17:55;3.00;99.90
3996;DHT22;2012;49.794;9.722;2023-04-03T01:25:47;2.90;99.90
3996;DHT22;2012;49.794;9.722;2023-04-03T01:28:20;2.80;99.90
3996;DHT22;2012;49.794;9.722;2023-04-03T01:33:39;3.00;99.90
3996;DHT22;2012;49.794;9.722;2023-04-03T01:36:06;2.80;99.90
3996;DHT22;2012;49.794;9.722;2023-04-03T01:38:33;2.90;99.90
3996;DHT22;2012;49.794;9.722;2023-04-03T01:41:00;3.00;99.90
3996;DHT22;2012;49.794;9.722;2023-04-03T01:43:28;3.10;99.90
3996;DHT22;2012;49.794;9.722;2023-04-03T01:45:55;3.20;99.90
3996;DHT22;2012;49.794;9.722;2023-04-03T01:48:22;3.10;99.90
3996;DHT22;2012;49.794;9.722;2023-04-03T01:50:49;3.10;99.90
3996;DHT22;2012;49.794;9.722;2023-04-03T01:53:17;2.90;99.90
3996;DHT22;2012;49.794;9.722;2023-04-03T01:55:44;2.80;99.90
3996;DHT22;2012;49.794;9.722;2023-04-03T01:58:10;2.90;99.90
3996;DHT22;2012;49.794;9.722;2023-04-03T02:00:37;3.00;99.90
3996;DHT22;2012;49.794;9.722;2023-04-03T02:03:04;3.10;99.90
3996;DHT22;2012;49.794;9.722;2023-04-03T02:05:32;3.10;99.90
3996;DHT22;2012;49.794;9.722;2023-04-03T02:07:59;3.10;99.90
3996;DHT22;2012;49.794;9.722;2023-04-03T02:10:26;3.00;99.90
3996;DHT22;2012;49.794;9.722;2023-04-03T02:12:53;3.10;99.90
3996;DHT22;2012;49.794;9.722;2023-04-03T02:15:20;3.10;99.90
3996;DHT22;2012;49.794;9.722;2023-04-03T02:17:47;3.10;99.90
3996;DHT22;2012;49.794;9.722;2023-04-03T02:20:14;3.10;99.90
3996;DHT22;2012;49.794;9.722;2023-04-03T02:22:41;3.10;99.90
3996;DHT22;2012;49.794;9.722;2023-04-03T02:25:08;3.00;99.90
3996;DHT22;2012;49.794;9.722;2023-04-03T02:27:36;3.10;99.90
3996;DHT22;2012;49.794;9.722;2023-04-03T02:30:03;3.20;99.90
3996;DHT22;2012;49.794;9.722;2023-04-03T02:32:31;3.20;99.90
3996;DHT22;2012;49.794;9.722;2023-04-03T02:34:58;3.20;99.90
3996;DHT22;2012;49.794;9.722;2023-04-03T02:37:25;3.20;99.90
3996;DHT22;2012;49.794;9.722;2023-04-03T02:39:53;3.20;99.90
3996;DHT22;2012;49.794;9.722;2023-04-03T02:42:20;3.20;99.90
3996;DHT22;2012;49.794;9.722;2023-04-03T02:44:47;3.20;99.90
3996;DHT22;2012;49.794;9.722;2023-04-03T02:47:14;3.20;99.90
3996;DHT22;2012;49.794;9.722;2023-04-03T02:49:40;3.20;99.90
3996;DHT22;2012;49.794;9.722;2023-04-03T02:52:09;3.30;99.90
3996;DHT22;2012;49.794;9.722;2023-04-03T02:54:36;3.30;99.90
3996;DHT22;2012;49.794;9.722;2023-04-03T02:57:06;3.20;99.90
3996;DHT22;2012;49.794;9.722;2023-04-03T02:59:36;3.20;99.90
3996;DHT22;2012;49.794;9.722;2023-04-03T03:02:03;3.30;99.90
3996;DHT22;2012;49.794;9.722;2023-04-03T03:04:30;3.20;99.90
3996;DHT22;2012;49.794;9.722;2023-04-03T03:06:56;3.20;99.90
3996;DHT22;2012;49.794;9.722;2023-04-03T03:09:23;3.30;99.90
3996;DHT22;2012;49.794;9.722;2023-04-03T03:11:50;3.30;99.90
3996;DHT22;2012;49.794;9.722;2023-04-03T03:14:17;3.20;99.90
3996;DHT22;2012;49.794;9.722;2023-04-03T03:16:44;3.20;99.90
3996;DHT22;2012;49.794;9.722;2023-04-03T03:19:11;3.30;99.90
3996;DHT22;2012;49.794;9.722;2023-04-03T03:21:38;3.10;99.90
3996;DHT22;2012;49.794;9.722;2023-04-03T03:24:05;3.20;99.90
3996;DHT22;2012;49.794;9.722;2023-04-03T03:26:32;3.20;99.90
3996;DHT22;2012;49.794;9.722;2023-04-03T03:29:01;3.30;99.90
3996;DHT22;2012;49.794;9.722;2023-04-03T03:31:28;3.30;99.90
3996;DHT22;2012;49.794;9.722;2023-04-03T03:33:56;3.30;99.90
3996;DHT22;2012;49.794;9.722;2023-04-03T03:36:24;3.30;99.90
3996;DHT22;2012;49.794;9.722;2023-04-03T03:38:51;3.30;99.90
3996;DHT22;2012;49.794;9.722;2023-04-03T03:41:18;3.20;99.90
3996;DHT22;2012;49.794;9.722;2023-04-03T03:43:46;3.30;99.90
3996;DHT22;2012;49.794;9.722;2023-04-03T03:46:15;3.30;99.90
3996;DHT22;2012;49.794;9.722;2023-04-03T03:48:42;3.30;99.90
3996;DHT22;2012;49.794;9.722;2023-04-03T03:51:08;3.40;99.90
3996;DHT22;2012;49.794;9.722;2023-04-03T03:53:37;3.50;99.90
3996;DHT22;2012;49.794;9.722;2023-04-03T03:56:08;3.60;99.90
3996;DHT22;2012;49.794;9.722;2023-04-03T03:58:36;3.70;99.90
3996;DHT22;2012;49.794;9.722;2023-04-03T04:01:04;3.60;99.90
3996;DHT22;2012;49.794;9.722;2023-04-03T04:03:35;3.70;99.90
3996;DHT22;2012;49.794;9.722;2023-04-03T04:06:02;3.70;99.90
3996;DHT22;2012;49.794;9.722;2023-04-03T04:08:29;3.90;99.90
3996;DHT22;2012;49.794;9.722;2023-04-03T04:10:56;3.90;99.90
3996;DHT22;2012;49.794;9.722;2023-04-03T04:13:23;3.80;99.90
3996;DHT22;2012;49.794;9.722;2023-04-03T04:15:50;3.80;99.90
3996;DHT22;2012;49.794;9.722;2023-04-03T04:18:17;3.80;99.90
3996;DHT22;2012;49.794;9.722;2023-04-03T04:20:47;3.80;99.90
3996;DHT22;2012;49.794;9.722;2023-04-03T04:23:17;3.90;99.90
3996;DHT22;2012;49.794;9.722;2023-04-03T04:25:46;3.80;99.90
3996;DHT22;2012;49.794;9.722;2023-04-03T04:28:14;3.90;99.90
3996;DHT22;2012;49.794;9.722;2023-04-03T04:30:41;4.00;99.90
3996;DHT22;2012;49.794;9.722;2023-04-03T04:33:08;3.90;99.90
3996;DHT22;2012;49.794;9.722;2023-04-03T04:35:35;3.90;99.90
3996;DHT22;2012;49.794;9.722;2023-04-03T04:38:03;3.90;99.90
3996;DHT22;2012;49.794;9.722;2023-04-03T04:40:30;4.00;99.90
3996;DHT22;2012;49.794;9.722;2023-04-03T04:42:58;4.10;99.90
3996;DHT22;2012;49.794;9.722;2023-04-03T04:45:25;3.70;99.90
3996;DHT22;2012;49.794;9.722;2023-04-03T04:47:55;3.70;99.90
3996;DHT22;2012;49.794;9.722;2023-04-03T04:50:24;3.80;99.90
3996;DHT22;2012;49.794;9.722;2023-04-03T04:52:52;3.90;99.90
3996;DHT22;2012;49.794;9.722;2023-04-03T04:55:19;3.90;99.90
3996;DHT22;2012;49.794;9.722;2023-04-03T04:57:46;3.80;99.90
3996;DHT22;2012;49.794;9.722;2023-04-03T05:00:15;3.60;99.90
3996;DHT22;2012;49.794;9.722;2023-04-03T05:02:43;3.60;99.90
3996;DHT22;2012;49.794;9.722;2023-04-03T05:05:10;3.80;99.90
3996;DHT22;2012;49.794;9.722;2023-04-03T05:07:37;3.60;99.90
3996;DHT22;2012;49.794;9.722;2023-04-03T05:10:05;3.80;99.90
3996;DHT22;2012;49.794;9.722;2023-04-03T05:12:33;3.70;99.90
3996;DHT22;2012;49.794;9.722;2023-04-03T05:15:02;3.80;99.90
3996;DHT22;2012;49.794;9.722;2023-04-03T05:17:30;3.90;99.90
3996;DHT22;2012;49.794;9.722;2023-04-03T05:19:58;3.70;99.90
3996;DHT22;2012;49.794;9.722;2023-04-03T05:22:27;3.70;99.90
3996;DHT22;2012;49.794;9.722;2023-04-03T05:24:58;3.50;99.90
3996;DHT22;2012;49.794;9.722;2023-04-03T05:27:25;3.50;99.90
3996;DHT22;2012;49.794;9.722;2023-04-03T05:29:56;3.60;99.90
3996;DHT22;2012;49.794;9.722;2023-04-03T05:32:25;3.40;99.90
3996;DHT22;2012;49.794;9.722;2023-04-03T05:35:18;3.50;99.90
3996;DHT22;2012;49.794;9.722;2023-04-03T05:37:48;3.40;99.90
3996;DHT22;2012;49.794;9.722;2023-04-03T05:40:16;3.40;99.90
3996;DHT22;2012;49.794;9.722;2023-04-03T05:42:46;3.50;99.90
3996;DHT22;2012;49.794;9.722;2023-04-03T05:45:14;3.50;99.90
3996;DHT22;2012;49.794;9.722;2023-04-03T05:47:41;3.40;99.90
3996;DHT22;2012;49.794;9.722;2023-04-03T05:50:08;3.50;99.90
3996;DHT22;2012;49.794;9.722;2023-04-03T05:52:37;3.50;99.90
3996;DHT22;2012;49.794;9.722;2023-04-03T05:55:06;3.40;99.90
3996;DHT22;2012;49.794;9.722;2023-04-03T05:57:34;3.40;99.90
3996;DHT22;2012;49.794;9.722;2023-04-03T06:00:02;3.50;99.90
3996;DHT22;2012;49.794;9.722;2023-04-03T06:02:39;3.30;99.90
3996;DHT22;2012;49.794;9.722;2023-04-03T06:05:09;3.30;99.90
3996;DHT22;2012;49.794;9.722;2023-04-03T06:07:38;3.30;99.90
3996;DHT22;2012;49.794;9.722;2023-04-03T06:10:05;3.30;99.90
3996;DHT22;2012;49.794;9.722;2023-04-03T06:12:33;3.40;99.90
3996;DHT22;2012;49.794;9.722;2023-04-03T06:15:00;3.50;99.90
3996;DHT22;2012;49.794;9.722;2023-04-03T06:17:27;3.70;99.90
3996;DHT22;2012;49.794;9.722;2023-04-03T06:19:54;3.60;99.90
3996;DHT22;2012;49.794;9.722;2023-04-03T06:22:22;3.60;99.90
3996;DHT22;2012;49.794;9.722;2023-04-03T06:24:50;3.40;99.90
3996;DHT22;2012;49.794;9.722;2023-04-03T06:27:17;3.50;99.90
3996;DHT22;2012;49.794;9.722;2023-04-03T06:29:43;3.70;99.90
3996;DHT22;2012;49.794;9.722;2023-04-03T06:32:11;3.70;99.90
3996;DHT22;2012;49.794;9.722;2023-04-03T06:34:38;3.70;99.90
3996;DHT22;2012;49.794;9.722;2023-04-03T06:37:05;4.00;99.90
3996;DHT22;2012;49.794;9.722;2023-04-03T06:39:32;3.80;99.90
3996;DHT22;2012;49.794;9.722;2023-04-03T06:41:59;3.80;99.90
3996;DHT22;2012;49.794;9.722;2023-04-03T06:44:34;3.90;99.90
3996;DHT22;2012;49.794;9.722;2023-04-03T06:47:01;4.00;99.90
3996;DHT22;2012;49.794;9.722;2023-04-03T06:49:28;3.90;99.90
3996;DHT22;2012;49.794;9.722;2023-04-03T06:51:55;4.10;99.90
3996;DHT22;2012;49.794;9.722;2023-04-03T06:54:23;4.10;99.90
3996;DHT22;2012;49.794;9.722;2023-04-03T06:56:50;5.70;99.90
3996;DHT22;2012;49.794;9.722;2023-04-03T06:59:17;7.10;99.90
3996;DHT22;2012;49.794;9.722;2023-04-03T07:01:44;7.70;99.90
3996;DHT22;2012;49.794;9.722;2023-04-03T07:04:11;6.70;99.90
3996;DHT22;2012;49.794;9.722;2023-04-03T07:06:39;5.70;99.90
3996;DHT22;2012;49.794;9.722;2023-04-03T07:09:06;5.80;99.90
3996;DHT22;2012;49.794;9.722;2023-04-03T07:11:34;5.80;99.90
3996;DHT22;2012;49.794;9.722;2023-04-03T07:14:01;5.80;99.90
3996;DHT22;2012;49.794;9.722;2023-04-03T07:16:28;5.60;99.90
3996;DHT22;2012;49.794;9.722;2023-04-03T07:18:57;5.50;99.90
3996;DHT22;2012;49.794;9.722;2023-04-03T07:21:24;5.40;99.90
3996;DHT22;2012;49.794;9.722;2023-04-03T07:23:51;5.60;99.90
3996;DHT22;2012;49.794;9.722;2023-04-03T07:26:18;5.50;99.90
3996;DHT22;2012;49.794;9.722;2023-04-03T07:28:48;5.30;99.90
3996;DHT22;2012;49.794;9.722;2023-04-03T07:31:17;5.60;99.90
3996;DHT22;2012;49.794;9.722;2023-04-03T07:33:45;5.60;99.90
3996;DHT22;2012;49.794;9.722;2023-04-03T07:36:16;5.20;99.90
3996;DHT22;2012;49.794;9.722;2023-04-03T07:38:43;5.30;99.90
3996;DHT22;2012;49.794;9.722;2023-04-03T07:41:16;5.70;99.90
3996;DHT22;2012;49.794;9.722;2023-04-03T07:43:44;5.30;99.90
3996;DHT22;2012;49.794;9.722;2023-04-03T07:46:12;4.80;99.90
3996;DHT22;2012;49.794;9.722;2023-04-03T07:48:39;4.90;99.90
3996;DHT22;2012;49.794;9.722;2023-04-03T07:51:06;5.00;99.90
3996;DHT22;2012;49.794;9.722;2023-04-03T07:53:33;4.90;99.90
3996;DHT22;2012;49.794;9.722;2023-04-03T07:56:00;5.00;99.90
3996;DHT22;2012;49.794;9.722;2023-04-03T07:58:29;5.10;99.90
3996;DHT22;2012;49.794;9.722;2023-04-03T08:00:56;5.10;99.90
3996;DHT22;2012;49.794;9.722;2023-04-03T08:03:24;5.40;99.90
3996;DHT22;2012;49.794;9.722;2023-04-03T08:05:51;5.50;99.90
3996;DHT22;2012;49.794;9.722;2023-04-03T08:08:21;5.60;99.90
3996;DHT22;2012;49.794;9.722;2023-04-03T08:10:50;5.30;99.90
3996;DHT22;2012;49.794;9.722;2023-04-03T08:13:17;5.30;99.90
3996;DHT22;2012;49.794;9.722;2023-04-03T08:15:44;5.40;99.90
3996;DHT22;2012;49.794;9.722;2023-04-03T08:18:12;5.20;99.90
3996;DHT22;2012;49.794;9.722;2023-04-03T08:20:39;5.20;99.90
3996;DHT22;2012;49.794;9.722;2023-04-03T08:23:07;5.30;99.90
3996;DHT22;2012;49.794;9.722;2023-04-03T08:25:38;5.10;99.90
3996;DHT22;2012;49.794;9.722;2023-04-03T08:28:05;5.10;99.90
3996;DHT22;2012;49.794;9.722;2023-04-03T08:30:33;5.10;99.90
3996;DHT22;2012;49.794;9.722;2023-04-03T08:33:01;5.00;99.90
3996;DHT22;2012;49.794;9.722;2023-04-03T08:35:28;5.10;99.90
3996;DHT22;2012;49.794;9.722;2023-04-03T08:37:56;5.40;99.90
3996;DHT22;2012;49.794;9.722;2023-04-03T08:40:23;5.70;99.90
3996;DHT22;2012;49.794;9.722;2023-04-03T08:43:03;5.70;99.90
3996;DHT22;2012;49.794;9.722;2023-04-03T08:45:50;5.90;99.90
3996;DHT22;2012;49.794;9.722;2023-04-03T08:48:27;6.10;99.90
3996;DHT22;2012;49.794;9.722;2023-04-03T08:51:17;6.10;99.90
3996;DHT22;2012;49.794;9.722;2023-04-03T08:54:00;6.00;99.90
3996;DHT22;2012;49.794;9.722;2023-04-03T08:56:30;6.00;99.90
3996;DHT22;2012;49.794;9.722;2023-04-03T08:59:00;6.20;99.90
3996;DHT22;2012;49.794;9.722;2023-04-03T09:01:38;6.30;99.90
3996;DHT22;2012;49.794;9.722;2023-04-03T09:04:12;6.10;99.90
3996;DHT22;2012;49.794;9.722;2023-04-03T09:06:42;6.00;99.90
3996;DHT22;2012;49.794;9.722;2023-04-03T09:12:14;6.50;99.90
3996;DHT22;2012;49.794;9.722;2023-04-03T09:18:21;7.10;99.90
3996;DHT22;2012;49.794;9.722;2023-04-03T09:23:42;6.70;99.90
3996;DHT22;2012;49.794;9.722;2023-04-03T09:26:25;6.40;99.90
3996;DHT22;2012;49.794;9.722;2023-04-03T09:28:56;6.30;99.90
3996;DHT22;2012;49.794;9.722;2023-04-03T09:31:26;6.40;99.90
3996;DHT22;2012;49.794;9.722;2023-04-03T09:33:58;6.60;99.90
3996;DHT22;2012;49.794;9.722;2023-04-03T09:36:51;6.60;99.90
3996;DHT22;2012;49.794;9.722;2023-04-03T09:39:21;7.00;99.90
3996;DHT22;2012;49.794;9.722;2023-04-03T09:41:59;7.20;99.90
3996;DHT22;2012;49.794;9.722;2023-04-03T09:44:37;6.80;99.90
3996;DHT22;2012;49.794;9.722;2023-04-03T09:47:32;6.60;99.90
3996;DHT22;2012;49.794;9.722;2023-04-03T09:52:52;7.20;99.90
3996;DHT22;2012;49.794;9.722;2023-04-03T09:55:20;6.90;99.90
3996;DHT22;2012;49.794;9.722;2023-04-03T09:57:56;6.80;99.90
3996;DHT22;2012;49.794;9.722;2023-04-03T10:00:31;6.80;99.90
3996;DHT22;2012;49.794;9.722;2023-04-03T10:02:59;7.00;99.90
3996;DHT22;2012;49.794;9.722;2023-04-03T10:05:38;6.80;99.90
3996;DHT22;2012;49.794;9.722;2023-04-03T10:08:10;6.80;99.90
3996;DHT22;2012;49.794;9.722;2023-04-03T10:10:38;6.60;99.90
3996;DHT22;2012;49.794;9.722;2023-04-03T10:13:13;6.60;99.90
3996;DHT22;2012;49.794;9.722;2023-04-03T10:16:01;6.40;99.90
3996;DHT22;2012;49.794;9.722;2023-04-03T10:18:40;6.60;99.90
3996;DHT22;2012;49.794;9.722;2023-04-03T10:26:45;7.20;99.90
3996;DHT22;2012;49.794;9.722;2023-04-03T10:29:25;7.10;99.90
3996;DHT22;2012;49.794;9.722;2023-04-03T10:34:43;7.60;99.90
3996;DHT22;2012;49.794;9.722;2023-04-03T10:37:27;7.90;99.90
3996;DHT22;2012;49.794;9.722;2023-04-03T10:40:17;7.60;99.90
3996;DHT22;2012;49.794;9.722;2023-04-03T10:43:10;7.90;99.90
3996;DHT22;2012;49.794;9.722;2023-04-03T10:45:54;8.10;99.90
3996;DHT22;2012;49.794;9.722;2023-04-03T10:59:46;8.90;96.70
3996;DHT22;2012;49.794;9.722;2023-04-03T11:02:31;8.90;94.00
3996;DHT22;2012;49.794;9.722;2023-04-03T11:05:03;9.10;94.00
3996;DHT22;2012;49.794;9.722;2023-04-03T11:07:38;9.00;91.70
3996;DHT22;2012;49.794;9.722;2023-04-03T11:10:23;9.00;89.30
3996;DHT22;2012;49.794;9.722;2023-04-03T11:13:13;9.30;92.00
3996;DHT22;2012;49.794;9.722;2023-04-03T11:15:42;8.90;89.80
3996;DHT22;2012;49.794;9.722;2023-04-03T11:18:14;9.20;91.20
3996;DHT22;2012;49.794;9.722;2023-04-03T11:20:47;9.50;91.10
3996;DHT22;2012;49.794;9.722;2023-04-03T11:23:25;9.60;87.10
3996;DHT22;2012;49.794;9.722;2023-04-03T11:26:13;9.70;81.80
3996;DHT22;2012;49.794;9.722;2023-04-03T11:28:41;9.30;80.20
3996;DHT22;2012;49.794;9.722;2023-04-03T11:34:37;9.70;82.80
3996;DHT22;2012;49.794;9.722;2023-04-03T11:37:29;10.20;84.60
3996;DHT22;2012;49.794;9.722;2023-04-03T11:40:26;10.10;79.30
3996;DHT22;2012;49.794;9.722;2023-04-03T11:43:03;10.20;84.90
3996;DHT22;2012;49.794;9.722;2023-04-03T11:46:04;10.30;83.00
3996;DHT22;2012;49.794;9.722;2023-04-03T11:53:43;9.90;86.00
3996;DHT22;2012;49.794;9.722;2023-04-03T12:04:20;10.30;81.30
3996;DHT22;2012;49.794;9.722;2023-04-03T12:09:31;9.80;79.00
3996;DHT22;2012;49.794;9.722;2023-04-03T12:12:01;9.60;79.30
3996;DHT22;2012;49.794;9.722;2023-04-03T12:14:47;10.10;79.80
3996;DHT22;2012;49.794;9.722;2023-04-03T12:17:22;10.60;78.90
3996;DHT22;2012;49.794;9.722;2023-04-03T12:19:50;10.30;80.80
3996;DHT22;2012;49.794;9.722;2023-04-03T12:22:18;10.50;80.50
3996;DHT22;2012;49.794;9.722;2023-04-03T12:24:52;10.20;75.90
3996;DHT22;2012;49.794;9.722;2023-04-03T12:30:13;10.10;76.40
3996;DHT22;2012;49.794;9.722;2023-04-03T12:36:03;10.50;76.40
3996;DHT22;2012;49.794;9.722;2023-04-03T12:38:45;10.10;74.60
3996;DHT22;2012;49.794;9.722;2023-04-03T12:41:32;10.40;75.40
3996;DHT22;2012;49.794;9.722;2023-04-03T12:47:22;11.10;74.90
3996;DHT22;2012;49.794;9.722;2023-04-03T12:49:50;10.90;72.40
3996;DHT22;2012;49.794;9.722;2023-04-03T12:52:39;10.80;72.00
3996;DHT22;2012;49.794;9.722;2023-04-03T12:55:17;10.80;73.90
3996;DHT22;2012;49.794;9.722;2023-04-03T12:57:44;11.00;75.20
3996;DHT22;2012;49.794;9.722;2023-04-03T13:00:28;11.10;74.70
3996;DHT22;2012;49.794;9.722;2023-04-03T13:02:55;10.70;72.60
3996;DHT22;2012;49.794;9.722;2023-04-03T13:05:23;10.80;72.50
3996;DHT22;2012;49.794;9.722;2023-04-03T13:08:00;11.10;76.50
3996;DHT22;2012;49.794;9.722;2023-04-03T13:10:28;11.10;71.60
3996;DHT22;2012;49.794;9.722;2023-04-03T13:12:58;11.40;74.20
3996;DHT22;2012;49.794;9.722;2023-04-03T13:15:44;11.40;73.60
3996;DHT22;2012;49.794;9.722;2023-04-03T13:18:32;11.50;75.10
3996;DHT22;2012;49.794;9.722;2023-04-03T13:21:15;11.70;71.80
3996;DHT22;2012;49.794;9.722;2023-04-03T13:23:47;11.50;69.70
3996;DHT22;2012;49.794;9.722;2023-04-03T13:26:20;11.00;67.80
3996;DHT22;2012;49.794;9.722;2023-04-03T13:28:48;11.00;67.70
3996;DHT22;2012;49.794;9.722;2023-04-03T13:31:29;11.40;68.20
3996;DHT22;2012;49.794;9.722;2023-04-03T13:36:32;11.20;66.60
3996;DHT22;2012;49.794;9.722;2023-04-03T13:39:05;11.20;67.00
3996;DHT22;2012;49.794;9.722;2023-04-03T13:46:54;12.50;68.00
3996;DHT22;2012;49.794;9.722;2023-04-03T13:49:31;13.30;69.20
3996;DHT22;2012;49.794;9.722;2023-04-03T13:51:58;13.30;63.80
3996;DHT22;2012;49.794;9.722;2023-04-03T13:54:36;12.80;62.40
3996;DHT22;2012;49.794;9.722;2023-04-03T13:57:12;12.40;63.10
3996;DHT22;2012;49.794;9.722;2023-04-03T13:59:40;12.10;62.60
3996;DHT22;2012;49.794;9.722;2023-04-03T14:02:30;11.90;61.70
3996;DHT22;2012;49.794;9.722;2023-04-03T14:05:01;11.60;62.70
3996;DHT22;2012;49.794;9.722;2023-04-03T14:07:30;11.50;63.80
3996;DHT22;2012;49.794;9.722;2023-04-03T14:09:58;11.10;63.10
3996;DHT22;2012;49.794;9.722;2023-04-03T14:12:34;11.00;63.50
3996;DHT22;2012;49.794;9.722;2023-04-03T14:15:18;10.90;64.90
3996;DHT22;2012;49.794;9.722;2023-04-03T14:17:46;11.20;66.50
3996;DHT22;2012;49.794;9.722;2023-04-03T14:20:18;11.30;65.10
3996;DHT22;2012;49.794;9.722;2023-04-03T14:22:46;11.30;63.60
3996;DHT22;2012;49.794;9.722;2023-04-03T14:25:13;11.40;64.70
3996;DHT22;2012;49.794;9.722;2023-04-03T14:27:45;11.60;65.60
3996;DHT22;2012;49.794;9.722;2023-04-03T14:30:29;11.80;62.30
3996;DHT22;2012;49.794;9.722;2023-04-03T14:32:56;11.90;63.40
3996;DHT22;2012;49.794;9.722;2023-04-03T14:35:24;11.80;62.70
3996;DHT22;2012;49.794;9.722;2023-04-03T14:37:53;11.60;63.30
3996;DHT22;2012;49.794;9.722;2023-04-03T14:40:25;11.10;61.40
3996;DHT22;2012;49.794;9.722;2023-04-03T14:42:54;10.70;61.80
3996;DHT22;2012;49.794;9.722;2023-04-03T14:45:23;11.10;63.50
3996;DHT22;2012;49.794;9.722;2023-04-03T14:47:52;10.90;63.40
3996;DHT22;2012;49.794;9.722;2023-04-03T14:50:24;11.00;62.40
3996;DHT22;2012;49.794;9.722;2023-04-03T14:52:54;11.40;62.90
3996;DHT22;2012;49.794;9.722;2023-04-03T14:55:23;11.20;60.80
3996;DHT22;2012;49.794;9.722;2023-04-03T14:57:52;11.40;63.00
3996;DHT22;2012;49.794;9.722;2023-04-03T15:00:21;11.60;62.70
3996;DHT22;2012;49.794;9.722;2023-04-03T15:02:48;11.60;63.50
3996;DHT22;2012;49.794;9.722;2023-04-03T15:05:16;11.40;62.40
3996;DHT22;2012;49.794;9.722;2023-04-03T15:07:50;11.80;63.80
3996;DHT22;2012;49.794;9.722;2023-04-03T15:10:20;11.60;62.60
3996;DHT22;2012;49.794;9.722;2023-04-03T15:12:48;11.50;62.10
3996;DHT22;2012;49.794;9.722;2023-04-03T15:15:17;10.70;59.80
3996;DHT22;2012;49.794;9.722;2023-04-03T15:17:44;10.50;60.60
3996;DHT22;2012;49.794;9.722;2023-04-03T15:20:17;10.00;61.60
3996;DHT22;2012;49.794;9.722;2023-04-03T15:22:44;10.10;63.50
3996;DHT22;2012;49.794;9.722;2023-04-03T15:25:11;10.40;63.40
3996;DHT22;2012;49.794;9.722;2023-04-03T15:27:38;10.30;63.10
3996;DHT22;2012;49.794;9.722;2023-04-03T15:30:10;10.50;63.30
3996;DHT22;2012;49.794;9.722;2023-04-03T15:32:37;10.80;62.80
3996;DHT22;2012;49.794;9.722;2023-04-03T15:35:05;10.70;63.90
3996;DHT22;2012;49.794;9.722;2023-04-03T15:37:32;10.60;63.40
3996;DHT22;2012;49.794;9.722;2023-04-03T15:39:59;10.40;64.60
3996;DHT22;2012;49.794;9.722;2023-04-03T15:42:26;10.30;64.10
3996;DHT22;2012;49.794;9.722;2023-04-03T15:44:53;10.20;64.00
3996;DHT22;2012;49.794;9.722;2023-04-03T15:47:20;10.20;65.80
3996;DHT22;2012;49.794;9.722;2023-04-03T15:49:47;10.40;66.80
3996;DHT22;2012;49.794;9.722;2023-04-03T15:52:14;10.40;65.10
3996;DHT22;2012;49.794;9.722;2023-04-03T15:54:40;10.50;66.40
3996;DHT22;2012;49.794;9.722;2023-04-03T15:57:07;10.50;66.50
3996;DHT22;2012;49.794;9.722;2023-04-03T15:59:34;10.00;65.20
3996;DHT22;2012;49.794;9.722;2023-04-03T16:02:03;9.70;66.20
3996;DHT22;2012;49.794;9.722;2023-04-03T16:04:32;9.60;67.20
3996;DHT22;2012;49.794;9.722;2023-04-03T16:07:03;9.60;68.50
3996;DHT22;2012;49.794;9.722;2023-04-03T16:09:31;9.50;70.00
3996;DHT22;2012;49.794;9.722;2023-04-03T16:11:59;9.10;66.50
3996;DHT22;2012;49.794;9.722;2023-04-03T16:14:27;9.20;66.30
3996;DHT22;2012;49.794;9.722;2023-04-03T16:16:55;9.60;67.70
3996;DHT22;2012;49.794;9.722;2023-04-03T16:19:22;9.50;68.50
3996;DHT22;2012;49.794;9.722;2023-04-03T16:21:53;9.60;68.40
3996;DHT22;2012;49.794;9.722;2023-04-03T16:24:20;9.60;69.60
3996;DHT22;2012;49.794;9.722;2023-04-03T16:26:47;9.50;68.50
3996;DHT22;2012;49.794;9.722;2023-04-03T16:29:14;9.20;68.70
3996;DHT22;2012;49.794;9.722;2023-04-03T16:31:41;9.50;70.80
3996;DHT22;2012;49.794;9.722;2023-04-03T16:34:08;9.50;70.40
3996;DHT22;2012;49.794;9.722;2023-04-03T16:36:35;9.20;69.80
3996;DHT22;2012;49.794;9.722;2023-04-03T16:39:04;9.20;70.70
3996;DHT22;2012;49.794;9.722;2023-04-03T16:41:31;8.90;68.90
3996;DHT22;2012;49.794;9.722;2023-04-03T16:43:58;8.70;69.00
3996;DHT22;2012;49.794;9.722;2023-04-03T16:46:26;8.60;68.80
3996;DHT22;2012;49.794;9.722;2023-04-03T16:48:53;8.90;71.00
3996;DHT22;2012;49.794;9.722;2023-04-03T16:51:20;8.90;69.90
3996;DHT22;2012;49.794;9.722;2023-04-03T16:53:46;8.90;71.40
3996;DHT22;2012;49.794;9.722;2023-04-03T16:56:13;8.90;71.70
3996;DHT22;2012;49.794;9.722;2023-04-03T16:58:40;8.80;71.90
3996;DHT22;2012;49.794;9.722;2023-04-03T17:01:16;8.70;73.70
3996;DHT22;2012;49.794;9.722;2023-04-03T17:03:44;8.40;72.20
3996;DHT22;2012;49.794;9.722;2023-04-03T17:06:15;8.40;72.50
3996;DHT22;2012;49.794;9.722;2023-04-03T17:08:44;8.50;72.70
3996;DHT22;2012;49.794;9.722;2023-04-03T17:11:25;8.30;73.30
3996;DHT22;2012;49.794;9.722;2023-04-03T17:13:52;9.30;84.90
3996;DHT22;2012;49.794;9.722;2023-04-03T17:16:20;8.70;72.90
3996;DHT22;2012;49.794;9.722;2023-04-03T17:18:47;8.20;72.50
3996;DHT22;2012;49.794;9.722;2023-04-03T17:21:15;7.90;73.20
3996;DHT22;2012;49.794;9.722;2023-04-03T17:23:44;7.60;73.20
3996;DHT22;2012;49.794;9.722;2023-04-03T17:26:12;7.90;74.80
3996;DHT22;2012;49.794;9.722;2023-04-03T17:28:39;8.10;76.50
3996;DHT22;2012;49.794;9.722;2023-04-03T17:31:09;8.10;74.90
3996;DHT22;2012;49.794;9.722;2023-04-03T17:33:35;8.10;74.20
3996;DHT22;2012;49.794;9.722;2023-04-03T17:36:05;8.00;74.60
3996;DHT22;2012;49.794;9.722;2023-04-03T17:38:33;7.90;75.40
3996;DHT22;2012;49.794;9.722;2023-04-03T17:41:02;7.70;76.70
3996;DHT22;2012;49.794;9.722;2023-04-03T17:43:29;7.80;76.70
3996;DHT22;2012;49.794;9.722;2023-04-03T17:46:02;7.60;77.00
3996;DHT22;2012;49.794;9.722;2023-04-03T17:48:31;7.60;77.40
3996;DHT22;2012;49.794;9.722;2023-04-03T17:50:58;7.80;79.50